createdAt,value
2018-07-02T00:00:56.720Z,101193.76
2018-07-02T00:03:25.560Z,101198.80
2018-07-02T00:06:38.261Z,101201.94
2018-07-02T00:09:07.115Z,101196.81
2018-07-02T00:11:35.995Z,101192.38
2018-07-02T00:14:04.957Z,101192.95
2018-07-02T00:16:33.862Z,101188.70
2018-07-02T00:19:05.649Z,101198.50
2018-07-02T00:21:34.564Z,101189.47
2018-07-02T00:24:03.468Z,101198.95
2018-07-02T00:26:32.379Z,101188.17
2018-07-02T00:29:01.287Z,101185.95
2018-07-02T00:31:30.177Z,101186.83
2018-07-02T00:33:59.062Z,101185.81
2018-07-02T00:36:27.972Z,101189.98
2018-07-02T00:38:56.881Z,101193.53
2018-07-02T00:41:32.674Z,101189.47
2018-07-02T00:44:01.560Z,101183.33
2018-07-02T00:46:30.467Z,101178.53
2018-07-02T00:48:59.402Z,101179.28
2018-07-02T00:51:28.316Z,101172.83
2018-07-02T00:53:57.301Z,101175.93
2018-07-02T00:56:26.134Z,101164.27
2018-07-02T00:58:55.124Z,101166.08
2018-07-02T01:01:26.570Z,101160.65
2018-07-02T01:03:56.674Z,101162.23
2018-07-02T01:06:25.576Z,101156.80
2018-07-02T01:08:54.481Z,101147.80
2018-07-02T01:11:23.422Z,101151.14
2018-07-02T01:13:52.805Z,101156.63
2018-07-02T01:16:21.767Z,101159.20
2018-07-02T01:18:51.356Z,101160.97
2018-07-02T01:21:20.636Z,101157.88
2018-07-02T01:23:55.455Z,101164.19
2018-07-02T01:26:24.459Z,101167.16
2018-07-02T01:28:53.470Z,101168.02
2018-07-02T01:31:22.342Z,101166.69
2018-07-02T01:33:51.192Z,101171.38
2018-07-02T01:36:20.090Z,101172.47
2018-07-02T01:38:48.955Z,101174.23
2018-07-02T01:41:17.874Z,101178.52
2018-07-02T01:43:46.806Z,101180.41
2018-07-02T01:46:50.996Z,101183.20
2018-07-02T01:49:19.875Z,101193.86
2018-07-02T01:51:48.754Z,101197.98
2018-07-02T01:54:17.635Z,101197.64
2018-07-02T01:56:46.536Z,101198.67
2018-07-02T01:59:15.458Z,101194.42
2018-07-02T02:01:44.331Z,101195.97
2018-07-02T02:04:13.209Z,101205.77
2018-07-02T02:06:42.113Z,101205.11
2018-07-02T02:09:11.747Z,101203.58
2018-07-02T02:11:40.637Z,101199.63
2018-07-02T02:14:09.530Z,101202.58
2018-07-02T02:16:38.442Z,101200.83
2018-07-02T02:19:07.697Z,101205.98
2018-07-02T02:21:36.716Z,101203.61
2018-07-02T02:24:05.545Z,101212.00
2018-07-02T02:26:34.462Z,101208.77
2018-07-02T02:29:03.361Z,101211.50
2018-07-02T02:31:32.389Z,101219.53
2018-07-02T02:34:01.208Z,101212.38
2018-07-02T02:36:30.071Z,101208.27
2018-07-02T02:38:59.136Z,101197.98
2018-07-02T02:41:28.084Z,101197.33
2018-07-02T02:43:56.884Z,101201.92
2018-07-02T02:46:25.768Z,101204.32
2018-07-02T02:48:54.683Z,101195.61
2018-07-02T02:51:23.614Z,101202.80
2018-07-02T02:53:52.665Z,101207.42
2018-07-02T02:56:21.614Z,101217.31
2018-07-02T02:58:50.520Z,101211.84
2018-07-02T03:01:19.411Z,101208.77
2018-07-02T03:03:48.321Z,101202.08
2018-07-02T03:06:17.192Z,101200.58
2018-07-02T03:08:46.140Z,101203.11
2018-07-02T03:11:15.100Z,101202.94
2018-07-02T03:13:44.216Z,101206.31
2018-07-02T03:16:13.236Z,101206.36
2018-07-02T03:18:42.138Z,101206.17
2018-07-02T03:21:12.496Z,101204.41
2018-07-02T03:23:41.417Z,101211.08
2018-07-02T03:26:10.610Z,101212.45
2018-07-02T03:28:39.502Z,101206.28
2018-07-02T03:31:08.418Z,101218.61
2018-07-02T03:33:37.263Z,101215.50
2018-07-02T03:36:06.138Z,101212.77
2018-07-02T03:38:35.029Z,101214.48
2018-07-02T03:41:03.914Z,101216.05
2018-07-02T03:43:32.846Z,101220.63
2018-07-02T03:46:01.770Z,101225.22
2018-07-02T03:48:30.663Z,101224.71
2018-07-02T03:50:59.542Z,101228.12
2018-07-02T03:53:28.420Z,101240.08
2018-07-02T03:55:57.375Z,101247.58
2018-07-02T03:58:26.291Z,101246.56
2018-07-02T04:00:55.490Z,101242.59
2018-07-02T04:03:24.313Z,101242.41
2018-07-02T04:05:53.170Z,101242.41
2018-07-02T04:08:22.050Z,101243.23
2018-07-02T04:10:50.896Z,101233.55
2018-07-02T04:13:19.730Z,101240.19
2018-07-02T04:15:48.618Z,101244.09
2018-07-02T04:18:17.510Z,101249.75
2018-07-02T04:20:46.362Z,101251.63
2018-07-02T04:23:23.927Z,101247.72
2018-07-02T04:25:52.798Z,101254.47
2018-07-02T04:28:21.610Z,101248.09
2018-07-02T04:30:50.503Z,101249.30
2018-07-02T04:33:19.395Z,101245.89
2018-07-02T04:35:48.243Z,101247.23
2018-07-02T04:38:17.134Z,101256.98
2018-07-02T04:40:46.064Z,101256.16
2018-07-02T04:43:14.943Z,101256.86
2018-07-02T04:45:43.962Z,101256.34
2018-07-02T04:48:12.814Z,101260.09
2018-07-02T04:50:41.699Z,101261.14
2018-07-02T04:53:10.559Z,101257.24
2018-07-02T04:55:39.500Z,101263.23
2018-07-02T04:58:08.364Z,101261.92
2018-07-02T05:00:37.264Z,101264.16
2018-07-02T05:03:06.173Z,101256.84
2018-07-02T05:05:35.025Z,101259.23
2018-07-02T05:08:04.238Z,101259.41
2018-07-02T05:10:33.014Z,101256.52
2018-07-02T05:13:01.958Z,101255.49
2018-07-02T05:15:30.847Z,101251.22
2018-07-02T05:17:59.707Z,101259.75
2018-07-02T05:20:28.578Z,101252.58
2018-07-02T05:22:57.477Z,101251.56
2018-07-02T05:25:26.390Z,101251.20
2018-07-02T05:27:55.258Z,101253.79
2018-07-02T05:30:24.286Z,101254.63
2018-07-02T05:32:53.208Z,101253.95
2018-07-02T05:35:22.096Z,101253.92
2018-07-02T05:37:50.988Z,101249.98
2018-07-02T05:40:19.831Z,101244.52
2018-07-02T05:42:48.794Z,101239.52
2018-07-02T05:45:17.706Z,101243.33
2018-07-02T05:47:46.518Z,101242.77
2018-07-02T05:50:15.455Z,101238.48
2018-07-02T05:52:50.678Z,101242.88
2018-07-02T05:55:19.604Z,101237.78
2018-07-02T05:57:48.551Z,101248.70
2018-07-02T06:00:17.636Z,101247.42
2018-07-02T06:02:46.443Z,101247.28
2018-07-02T06:05:15.304Z,101246.10
2018-07-02T06:07:44.210Z,101242.12
2018-07-02T06:10:13.059Z,101249.73
2018-07-02T06:12:41.935Z,101247.33
2018-07-02T06:15:13.792Z,101245.39
2018-07-02T06:17:42.646Z,101246.70
2018-07-02T06:20:11.552Z,101247.91
2018-07-02T06:22:40.382Z,101250.09
2018-07-02T06:25:09.270Z,101247.51
2018-07-02T06:27:38.228Z,101250.60
2018-07-02T06:30:07.305Z,101250.84
2018-07-02T06:32:36.294Z,101243.80
2018-07-02T06:35:05.068Z,101244.57
2018-07-02T06:37:34.049Z,101236.78
2018-07-02T06:40:02.947Z,101245.89
2018-07-02T06:42:31.880Z,101249.23
2018-07-02T06:45:00.803Z,101243.53
2018-07-02T06:47:29.766Z,101242.95
2018-07-02T06:49:58.674Z,101243.95
2018-07-02T06:52:27.538Z,101241.86
2018-07-02T06:54:56.513Z,101244.53
2018-07-02T06:57:25.484Z,101253.26
2018-07-02T06:59:54.452Z,101244.01
2018-07-02T07:02:23.360Z,101250.92
2018-07-02T07:04:52.286Z,101250.81
2018-07-02T07:07:21.117Z,101250.87
2018-07-02T07:09:49.995Z,101241.78
2018-07-02T07:12:18.874Z,101255.19
2018-07-02T07:14:47.761Z,101253.30
2018-07-02T07:17:16.668Z,101251.11
2018-07-02T07:19:51.655Z,101247.39
2018-07-02T07:22:20.625Z,101252.59
2018-07-02T07:24:49.568Z,101253.56
2018-07-02T07:27:18.493Z,101250.08
2018-07-02T07:29:47.885Z,101256.19
2018-07-02T07:32:16.788Z,101257.16
2018-07-02T07:34:45.762Z,101260.15
2018-07-02T07:37:14.607Z,101259.75
2018-07-02T07:39:43.576Z,101267.87
2018-07-02T07:42:12.771Z,101265.02
2018-07-02T07:44:41.835Z,101266.88
2018-07-02T07:47:10.728Z,101269.38
2018-07-02T07:49:39.694Z,101277.91
2018-07-02T07:52:08.627Z,101269.86
2018-07-02T07:54:37.487Z,101267.45
2018-07-02T07:57:06.381Z,101274.34
2018-07-02T07:59:35.210Z,101264.55
2018-07-02T08:02:04.142Z,101264.65
2018-07-02T08:04:33.088Z,101264.70
2018-07-02T08:07:02.130Z,101277.90
2018-07-02T08:09:31.002Z,101276.05
2018-07-02T08:11:59.963Z,101268.84
2018-07-02T08:14:28.777Z,101272.48
2018-07-02T08:16:57.617Z,101275.19
2018-07-02T08:19:26.515Z,101270.32
2018-07-02T08:22:50.356Z,101261.66
2018-07-02T08:25:19.349Z,101257.16
2018-07-02T08:27:48.405Z,101244.81
2018-07-02T08:30:17.328Z,101254.20
2018-07-02T08:32:46.286Z,101258.49
2018-07-02T08:35:15.182Z,101248.77
2018-07-02T08:37:44.063Z,101243.32
2018-07-02T08:40:12.916Z,101264.41
2018-07-02T08:42:41.789Z,101247.23
2018-07-02T08:45:10.742Z,101248.59
2018-07-02T08:47:39.577Z,101244.75
2018-07-02T08:50:08.711Z,101246.87
2018-07-02T08:52:37.597Z,101242.34
2018-07-02T08:55:06.866Z,101255.00
2018-07-02T08:57:35.738Z,101256.19
2018-07-02T09:00:04.706Z,101245.48
2018-07-02T09:02:33.559Z,101248.59
2018-07-02T09:05:02.419Z,101241.50
2018-07-02T09:07:34.486Z,101245.74
2018-07-02T09:10:03.525Z,101245.14
2018-07-02T09:12:32.456Z,101247.63
2018-07-02T09:15:01.403Z,101244.44
2018-07-02T09:17:30.350Z,101248.58
2018-07-02T09:19:59.264Z,101248.74
2018-07-02T09:22:28.378Z,101249.14
2018-07-02T09:24:57.636Z,101247.46
2018-07-02T09:27:26.468Z,101232.88
2018-07-02T09:29:58.295Z,101251.33
2018-07-02T09:32:27.592Z,101238.15
2018-07-02T09:34:56.529Z,101251.86
2018-07-02T09:37:25.438Z,101247.27
2018-07-02T09:39:54.606Z,101243.11
2018-07-02T09:42:23.465Z,101256.66
2018-07-02T09:44:52.452Z,101242.41
2018-07-02T09:47:21.343Z,101252.66
2018-07-02T09:49:50.205Z,101243.95
2018-07-02T09:52:25.023Z,101249.48
2018-07-02T09:54:53.997Z,101256.13
2018-07-02T09:57:22.816Z,101256.22
2018-07-02T09:59:51.690Z,101269.80
2018-07-02T10:02:20.684Z,101258.84
2018-07-02T10:04:49.631Z,101256.84
2018-07-02T10:07:18.552Z,101248.91
2018-07-02T10:09:47.483Z,101246.70
2018-07-02T10:12:16.461Z,101255.66
2018-07-02T10:14:45.358Z,101245.42
2018-07-02T10:17:14.230Z,101252.22
2018-07-02T10:19:43.150Z,101245.29
2018-07-02T10:22:11.997Z,101236.38
2018-07-02T10:24:40.840Z,101227.08
2018-07-02T10:27:09.687Z,101245.14
2018-07-02T10:29:38.550Z,101240.87
2018-07-02T10:32:07.405Z,101238.58
2018-07-02T10:34:45.210Z,101239.47
2018-07-02T10:37:14.223Z,101236.10
2018-07-02T10:39:43.077Z,101223.55
2018-07-02T10:42:12.037Z,101222.59
2018-07-02T10:44:40.950Z,101229.70
2018-07-02T10:47:09.878Z,101236.48
2018-07-02T10:49:38.817Z,101248.87
2018-07-02T10:52:07.613Z,101235.43
2018-07-02T10:54:36.605Z,101244.73
2018-07-02T10:57:05.771Z,101236.41
2018-07-02T10:59:34.957Z,101233.47
2018-07-02T11:02:03.811Z,101224.28
2018-07-02T11:04:32.898Z,101226.05
2018-07-02T11:07:01.779Z,101226.67
2018-07-02T11:09:30.674Z,101212.61
2018-07-02T11:11:59.546Z,101231.50
2018-07-02T11:14:28.434Z,101227.03
2018-07-02T11:16:57.275Z,101220.83
2018-07-02T11:19:26.259Z,101229.03
2018-07-02T11:21:55.046Z,101226.41
2018-07-02T11:24:23.949Z,101220.42
2018-07-02T11:26:52.880Z,101224.20
2018-07-02T11:29:21.790Z,101216.02
2018-07-02T11:31:50.722Z,101220.58
2018-07-02T11:34:21.270Z,101217.60
2018-07-02T11:36:50.724Z,101220.67
2018-07-02T11:39:19.529Z,101219.78
2018-07-02T11:41:48.517Z,101206.45
2018-07-02T11:44:17.424Z,101199.97
2018-07-02T11:46:46.477Z,101201.80
2018-07-02T11:49:15.448Z,101196.67
2018-07-02T11:51:44.276Z,101209.25
2018-07-02T11:54:13.131Z,101206.44
2018-07-02T11:56:41.981Z,101197.53
2018-07-02T11:59:10.841Z,101197.13
2018-07-02T12:01:39.726Z,101203.92
2018-07-02T12:04:09.896Z,101199.63
2018-07-02T12:06:38.703Z,101194.81
2018-07-02T12:09:08.915Z,101198.52
2018-07-02T12:11:37.742Z,101189.56
2018-07-02T12:14:06.596Z,101201.59
2018-07-02T12:16:35.676Z,101210.57
2018-07-02T12:19:04.739Z,101214.09
2018-07-02T12:21:34.247Z,101208.34
2018-07-02T12:24:03.247Z,101201.56
2018-07-02T12:26:32.201Z,101209.23
2018-07-02T12:29:01.174Z,101215.08
2018-07-02T12:31:30.163Z,101208.09
2018-07-02T12:33:59.079Z,101215.12
2018-07-02T12:36:27.915Z,101207.80
2018-07-02T12:38:56.777Z,101210.81
2018-07-02T12:41:25.592Z,101208.58
2018-07-02T12:43:54.413Z,101195.96
2018-07-02T12:46:23.276Z,101200.44
2018-07-02T12:48:52.103Z,101197.83
2018-07-02T12:51:20.951Z,101201.38
2018-07-02T12:53:49.801Z,101197.73
2018-07-02T12:56:18.626Z,101198.83
2018-07-02T12:58:47.477Z,101195.77
2018-07-02T13:01:16.297Z,101190.30
2018-07-02T13:03:45.119Z,101193.58
2018-07-02T13:06:13.967Z,101194.14
2018-07-02T13:08:45.668Z,101184.84
2018-07-02T13:11:14.493Z,101196.31
2018-07-02T13:13:43.341Z,101185.63
2018-07-02T13:16:12.146Z,101174.14
2018-07-02T13:18:40.993Z,101186.20
2018-07-02T13:21:09.883Z,101174.14
2018-07-02T13:23:38.745Z,101182.48
2018-07-02T13:26:07.574Z,101170.20
2018-07-02T13:28:36.493Z,101173.75
2018-07-02T13:31:07.033Z,101183.22
2018-07-02T13:33:35.905Z,101174.48
2018-07-02T13:36:04.749Z,101171.13
2018-07-02T13:38:33.573Z,101172.27
2018-07-02T13:41:02.427Z,101170.55
2018-07-02T13:43:31.257Z,101166.72
2018-07-02T13:46:00.095Z,101163.55
2018-07-02T13:48:28.964Z,101173.86
2018-07-02T13:50:57.811Z,101157.75
2018-07-02T13:53:32.754Z,101161.42
2018-07-02T13:56:01.600Z,101161.61
2018-07-02T13:58:30.440Z,101156.55
2018-07-02T14:00:59.319Z,101164.92
2018-07-02T14:03:28.216Z,101155.41
2018-07-02T14:05:57.278Z,101153.50
2018-07-02T14:08:26.112Z,101163.47
2018-07-02T14:10:54.960Z,101163.33
2018-07-02T14:13:23.954Z,101142.81
2018-07-02T14:15:58.930Z,101147.99
2018-07-02T14:18:27.776Z,101153.59
2018-07-02T14:20:56.584Z,101147.17
2018-07-02T14:23:25.415Z,101142.95
2018-07-02T14:25:54.274Z,101149.34
2018-07-02T14:28:23.135Z,101148.78
2018-07-02T14:30:51.968Z,101135.34
2018-07-02T14:33:20.834Z,101147.79
2018-07-02T14:35:49.679Z,101151.34
2018-07-02T14:38:18.673Z,101156.00
2018-07-02T14:40:47.522Z,101141.45
2018-07-02T14:43:16.337Z,101159.09
2018-07-02T14:45:45.189Z,101148.25
2018-07-02T14:48:14.069Z,101145.30
2018-07-02T14:50:42.935Z,101145.62
2018-07-02T14:53:11.773Z,101145.59
2018-07-02T14:55:40.640Z,101144.41
2018-07-02T14:58:09.478Z,101138.13
2018-07-02T15:00:38.312Z,101139.30
2018-07-02T15:03:07.149Z,101144.05
2018-07-02T15:05:36.035Z,101144.38
2018-07-02T15:08:05.118Z,101136.58
2018-07-02T15:10:34.008Z,101138.82
2018-07-02T15:13:02.909Z,101142.46
2018-07-02T15:15:31.844Z,101132.02
2018-07-02T15:18:00.733Z,101135.66
2018-07-02T15:20:29.670Z,101139.45
2018-07-02T15:23:07.184Z,101139.23
2018-07-02T15:25:36.035Z,101137.88
2018-07-02T15:28:05.041Z,101136.86
2018-07-02T15:30:33.880Z,101136.06
2018-07-02T15:33:02.708Z,101135.92
2018-07-02T15:35:31.644Z,101133.46
2018-07-02T15:38:00.476Z,101140.77
2018-07-02T15:40:29.567Z,101149.78
2018-07-02T15:42:58.412Z,101142.67
2018-07-02T15:45:27.290Z,101133.48
2018-07-02T15:47:56.132Z,101130.86
2018-07-02T15:50:24.983Z,101135.61
2018-07-02T15:52:54.700Z,101134.07
2018-07-02T15:55:23.567Z,101131.95
2018-07-02T15:57:52.438Z,101136.11
2018-07-02T16:00:21.330Z,101122.09
2018-07-02T16:02:50.136Z,101129.33
2018-07-02T16:05:18.970Z,101128.70
2018-07-02T16:07:47.827Z,101136.53
2018-07-02T16:10:16.665Z,101147.11
2018-07-02T16:12:45.508Z,101146.55
2018-07-02T16:15:14.341Z,101141.52
2018-07-02T16:17:43.185Z,101140.08
2018-07-02T16:20:12.011Z,101137.28
2018-07-02T16:22:40.853Z,101130.60
2018-07-02T16:25:09.657Z,101130.90
2018-07-02T16:27:38.516Z,101120.88
2018-07-02T16:30:08.842Z,101136.97
2018-07-02T16:32:37.679Z,101131.39
2018-07-02T16:35:06.541Z,101133.23
2018-07-02T16:37:35.406Z,101140.86
2018-07-02T16:40:04.378Z,101136.56
2018-07-02T16:42:33.197Z,101132.28
2018-07-02T16:45:02.352Z,101136.72
2018-07-02T16:47:31.452Z,101126.95
2018-07-02T16:50:00.587Z,101135.44
2018-07-02T16:52:29.665Z,101119.47
2018-07-02T16:54:58.439Z,101126.45
2018-07-02T16:57:27.293Z,101135.02
2018-07-02T16:59:56.124Z,101129.63
2018-07-02T17:02:24.959Z,101126.36
2018-07-02T17:04:53.800Z,101131.77
2018-07-02T17:07:22.640Z,101129.47
2018-07-02T17:09:51.491Z,101128.37
2018-07-02T17:12:20.327Z,101135.33
2018-07-02T17:14:49.199Z,101132.52
2018-07-02T17:17:18.037Z,101133.01
2018-07-02T17:19:46.895Z,101129.38
2018-07-02T17:22:15.701Z,101140.88
2018-07-02T17:24:44.531Z,101135.00
2018-07-02T17:27:13.382Z,101137.60
2018-07-02T17:29:42.223Z,101133.31
2018-07-02T17:32:11.035Z,101138.44
2018-07-02T17:34:39.876Z,101149.95
2018-07-02T17:37:08.815Z,101147.25
2018-07-02T17:39:37.699Z,101139.13
2018-07-02T17:42:06.770Z,101132.41
2018-07-02T17:44:35.696Z,101134.02
2018-07-02T17:47:04.616Z,101137.95
2018-07-02T17:49:33.509Z,101137.89
2018-07-02T17:52:02.353Z,101128.27
2018-07-02T17:54:31.152Z,101134.98
2018-07-02T17:57:00.006Z,101136.50
2018-07-02T17:59:28.830Z,101136.71
2018-07-02T18:01:57.669Z,101137.50
2018-07-02T18:04:26.525Z,101140.89
2018-07-02T18:06:55.390Z,101143.33
2018-07-02T18:09:24.236Z,101135.44
2018-07-02T18:11:53.084Z,101140.53
2018-07-02T18:14:21.928Z,101153.54
2018-07-02T18:16:50.777Z,101155.17
2018-07-02T18:19:19.637Z,101155.37
2018-07-02T18:21:49.684Z,101156.25
2018-07-02T18:24:18.579Z,101152.05
2018-07-02T18:26:47.700Z,101153.64
2018-07-02T18:29:16.819Z,101161.20
2018-07-02T18:31:45.645Z,101157.81
2018-07-02T18:34:14.497Z,101159.19
2018-07-02T18:36:43.336Z,101165.78
2018-07-02T18:39:12.895Z,101174.14
2018-07-02T18:41:41.726Z,101168.69
2018-07-02T18:44:10.531Z,101172.44
2018-07-02T18:46:39.499Z,101178.97
2018-07-02T18:49:08.368Z,101179.94
2018-07-02T18:51:37.185Z,101179.27
2018-07-02T18:54:06.026Z,101181.55
2018-07-02T18:56:34.866Z,101190.03
2018-07-02T18:59:03.762Z,101191.98
2018-07-02T19:01:32.619Z,101195.09
2018-07-02T19:04:01.450Z,101191.02
2018-07-02T19:06:30.332Z,101196.49
2018-07-02T19:08:59.171Z,101189.30
2018-07-02T19:11:28.037Z,101191.01
2018-07-02T19:13:56.873Z,101193.53
2018-07-02T19:16:25.699Z,101188.47
2018-07-02T19:18:54.587Z,101193.48
2018-07-02T19:21:23.453Z,101198.23
2018-07-02T19:23:52.364Z,101194.83
2018-07-02T19:26:21.364Z,101200.05
2018-07-02T19:28:50.209Z,101198.31
2018-07-02T19:31:19.001Z,101197.83
2018-07-02T19:33:47.932Z,101202.87
2018-07-02T19:36:16.707Z,101199.63
2018-07-02T19:38:45.600Z,101205.88
2018-07-02T19:41:14.520Z,101200.70
2018-07-02T19:43:43.272Z,101206.56
2018-07-02T19:46:12.092Z,101207.06
2018-07-02T19:48:41.079Z,101211.66
2018-07-02T19:51:09.947Z,101213.47
2018-07-02T19:53:38.809Z,101217.67
2018-07-02T19:56:07.647Z,101226.98
2018-07-02T19:58:36.755Z,101227.66
2018-07-02T20:01:05.900Z,101227.81
2018-07-02T20:03:34.672Z,101224.20
2018-07-02T20:06:03.534Z,101224.02
2018-07-02T20:08:32.369Z,101224.27
2018-07-02T20:11:01.209Z,101223.44
2018-07-02T20:13:30.089Z,101227.70
2018-07-02T20:15:58.960Z,101229.11
2018-07-02T20:18:27.865Z,101235.50
2018-07-02T20:20:56.676Z,101240.84
2018-07-02T20:23:25.521Z,101238.47
2018-07-02T20:25:54.451Z,101252.40
2018-07-02T20:28:23.326Z,101253.67
2018-07-02T20:30:52.190Z,101263.76
2018-07-02T20:33:21.028Z,101265.11
2018-07-02T20:35:49.875Z,101270.31
2018-07-02T20:38:18.771Z,101273.39
2018-07-02T20:40:47.568Z,101270.14
2018-07-02T20:43:16.578Z,101279.77
2018-07-02T20:45:45.440Z,101284.73
2018-07-02T20:48:14.269Z,101289.45
2018-07-02T20:50:43.187Z,101289.71
2018-07-02T20:53:12.038Z,101290.32
2018-07-02T20:55:40.918Z,101293.36
2018-07-02T20:58:09.850Z,101293.55
2018-07-02T21:00:38.596Z,101301.71
2018-07-02T21:03:07.456Z,101295.73
2018-07-02T21:05:36.356Z,101297.83
2018-07-02T21:08:05.175Z,101301.64
2018-07-02T21:10:34.121Z,101305.10
2018-07-02T21:13:02.928Z,101305.30
2018-07-02T21:15:31.745Z,101300.12
2018-07-02T21:18:00.618Z,101305.39
2018-07-02T21:20:29.466Z,101299.44
2018-07-02T21:22:58.317Z,101313.66
2018-07-02T21:25:27.158Z,101313.50
2018-07-02T21:27:56.018Z,101310.21
2018-07-02T21:30:24.871Z,101304.37
2018-07-02T21:32:53.729Z,101299.61
2018-07-02T21:35:22.545Z,101307.55
2018-07-02T21:37:51.444Z,101306.56
2018-07-02T21:40:20.288Z,101303.24
2018-07-02T21:42:49.357Z,101309.73
2018-07-02T21:45:18.199Z,101318.43
2018-07-02T21:47:47.055Z,101323.57
2018-07-02T21:50:15.912Z,101324.63
2018-07-02T21:52:44.807Z,101327.77
2018-07-02T21:55:13.579Z,101322.59
2018-07-02T21:57:42.391Z,101323.83
2018-07-02T22:00:12.979Z,101322.44
2018-07-02T22:02:41.918Z,101325.40
2018-07-02T22:05:10.922Z,101329.76
2018-07-02T22:07:40.242Z,101327.00
2018-07-02T22:10:09.314Z,101336.22
2018-07-02T22:12:38.433Z,101338.55
2018-07-02T22:15:07.276Z,101339.06
2018-07-02T22:17:36.139Z,101343.39
2018-07-02T22:20:06.247Z,101341.62
2018-07-02T22:22:38.271Z,101339.98
2018-07-02T22:25:07.143Z,101344.95
2018-07-02T22:27:36.037Z,101348.64
2018-07-02T22:30:04.910Z,101352.88
2018-07-02T22:32:33.760Z,101350.65
2018-07-02T22:35:02.611Z,101358.42
2018-07-02T22:37:31.424Z,101358.58
2018-07-02T22:40:00.284Z,101357.61
2018-07-02T22:42:29.146Z,101355.27
2018-07-02T22:44:58.185Z,101361.58
2018-07-02T22:47:27.033Z,101357.30
2018-07-02T22:49:55.873Z,101362.16
2018-07-02T22:52:24.718Z,101365.54
2018-07-02T22:54:53.559Z,101365.69
2018-07-02T22:57:22.403Z,101369.23
2018-07-02T22:59:51.271Z,101366.42
2018-07-02T23:02:20.100Z,101371.75
2018-07-02T23:04:48.961Z,101372.90
2018-07-02T23:07:17.804Z,101375.49
2018-07-02T23:09:46.654Z,101382.27
2018-07-02T23:12:15.494Z,101379.94
2018-07-02T23:14:44.347Z,101380.32
2018-07-02T23:17:13.228Z,101384.34
2018-07-02T23:19:42.059Z,101384.70
2018-07-02T23:22:10.954Z,101379.09
2018-07-02T23:24:39.819Z,101376.70
2018-07-02T23:27:08.689Z,101373.66
2018-07-02T23:29:37.519Z,101372.83
2018-07-02T23:32:06.547Z,101372.70
2018-07-02T23:34:35.380Z,101377.86
2018-07-02T23:37:04.520Z,101373.95
2018-07-02T23:39:33.350Z,101375.52
2018-07-02T23:42:02.192Z,101375.39
2018-07-02T23:44:31.056Z,101378.42
2018-07-02T23:46:59.992Z,101382.16
2018-07-02T23:49:28.832Z,101387.65
2018-07-02T23:52:04.106Z,101389.02
2018-07-02T23:54:32.931Z,101387.31
2018-07-02T23:57:01.785Z,101385.30
2018-07-02T23:59:30.611Z,101385.98
